Time;durP1;ratioP1;P1;durP2;ratioP2;P2;SDS_P1;SDS_P2;PMS_P1;PMS_P2;Temp;Humidity;BMP_temperature;BMP_pressure;BME280_temperature;BME280_humidity;BME280_pressure;Samples;Min_cycle;Max_cycle;Signal;HPM_P1;HPM_P2
2020/12/26 00:01:19;;;;;;;14.05;8.73;;;;;;;2.00;72.81;99707.75;5133954;27;20042;-64
2020/12/26 00:03:46;;;;;;;16.52;10.02;;;;;;;1.99;72.85;99708.69;5133699;27;20043;-64
2020/12/26 00:06:14;;;;;;;15.63;8.98;;;;;;;1.94;72.70;99718.63;5133999;27;20106;-64
2020/12/26 00:08:41;;;;;;;13.00;8.05;;;;;;;1.93;72.69;99716.97;5115445;27;20051;-64
2020/12/26 00:11:09;;;;;;;17.02;9.30;;;;;;;1.90;72.66;99722.41;5133889;27;20508;-64
2020/12/26 00:13:36;;;;;;;15.77;9.43;;;;;;;1.77;72.60;99713.84;5133372;27;20640;-64
2020/12/26 00:16:05;;;;;;;18.20;10.40;;;;;;;1.72;73.00;99729.84;5133519;27;20039;-64
2020/12/26 00:18:33;;;;;;;13.25;9.68;;;;;;;1.60;73.20;99726.34;5115462;27;20068;-64
2020/12/26 00:21:00;;;;;;;19.92;10.00;;;;;;;1.57;73.31;99744.00;5133763;27;20035;-64
2020/12/26 00:23:27;;;;;;;15.05;8.93;;;;;;;1.59;73.44;99734.25;5115325;27;20047;-64
2020/12/26 00:25:53;;;;;;;13.88;8.63;;;;;;;1.63;73.47;99740.91;5133409;27;20539;-64
2020/12/26 00:28:20;;;;;;;18.98;10.63;;;;;;;1.58;73.38;99746.47;5133363;27;20499;-64
2020/12/26 00:30:47;;;;;;;16.90;9.32;;;;;;;1.58;73.49;99735.22;5133321;27;20058;-64
2020/12/26 00:33:14;;;;;;;18.20;10.57;;;;;;;1.58;73.61;99738.66;5133527;27;20046;-64
2020/12/26 00:35:41;;;;;;;16.83;9.82;;;;;;;1.61;73.63;99735.00;5133152;27;20404;-64
2020/12/26 00:38:08;;;;;;;18.65;10.65;;;;;;;1.57;73.81;99731.78;5133366;27;20047;-64
2020/12/26 00:40:34;;;;;;;15.77;10.25;;;;;;;1.60;73.83;99734.19;5133386;27;20039;-64
2020/12/26 00:43:01;;;;;;;17.67;10.43;;;;;;;1.65;73.95;99737.25;5133337;27;20047;-64
2020/12/26 00:45:28;;;;;;;14.32;10.38;;;;;;;1.66;73.83;99738.09;5133048;27;20054;-64
2020/12/26 00:47:55;;;;;;;17.75;9.57;;;;;;;1.62;73.79;99737.47;5133257;27;20058;-64
2020/12/26 00:50:23;;;;;;;16.08;10.38;;;;;;;1.54;73.95;99741.59;5114846;27;20508;-64
2020/12/26 00:52:50;;;;;;;15.30;9.52;;;;;;;1.60;74.11;99739.38;5114786;27;20066;-64
2020/12/26 00:55:17;;;;;;;17.95;9.63;;;;;;;1.68;73.84;99738.81;5132687;27;20121;-65
2020/12/26 00:57:44;;;;;;;16.55;9.88;;;;;;;1.62;73.80;99744.47;5114665;27;20049;-64
2020/12/26 01:00:11;;;;;;;18.02;10.95;;;;;;;1.59;73.90;99739.47;5133206;27;20580;-65
2020/12/26 01:02:47;;;;;;;14.32;9.85;;;;;;;1.58;73.72;99733.44;5114902;28;20058;-65
2020/12/26 01:05:18;;;;;;;16.60;11.02;;;;;;;1.63;74.08;99739.16;5133417;27;20485;-65
2020/12/26 01:07:45;;;;;;;15.68;9.05;;;;;;;1.62;73.74;99744.47;5133130;27;20061;-65
2020/12/26 01:10:12;;;;;;;14.18;10.20;;;;;;;1.58;74.11;99743.03;5132982;28;20036;-65
2020/12/26 01:12:39;;;;;;;16.05;9.35;;;;;;;1.58;74.05;99750.84;5114522;28;20047;-64
2020/12/26 01:15:05;;;;;;;18.17;9.32;;;;;;;1.63;74.22;99744.38;5132591;27;20481;-65
2020/12/26 01:17:32;;;;;;;18.08;10.18;;;;;;;1.63;74.19;99738.31;5132971;28;20447;-64
2020/12/26 01:19:59;;;;;;;19.90;10.60;;;;;;;1.65;74.38;99745.09;5132908;28;20043;-64
2020/12/26 01:22:26;;;;;;;16.73;10.52;;;;;;;1.58;73.83;99748.25;5132817;28;20581;-64
2020/12/26 01:24:53;;;;;;;16.65;10.07;;;;;;;1.44;73.96;99751.88;5132838;28;20404;-64
2020/12/26 01:27:20;;;;;;;13.70;8.98;;;;;;;1.44;74.31;99764.91;5132947;28;20047;-64
2020/12/26 01:29:47;;;;;;;18.73;10.57;;;;;;;1.50;74.33;99764.44;5132996;28;20054;-64
2020/12/26 01:32:14;;;;;;;14.90;9.93;;;;;;;1.46;74.18;99769.03;5132913;27;20074;-64
2020/12/26 01:34:41;;;;;;;16.17;9.98;;;;;;;1.28;74.46;99772.97;5132345;27;20053;-64
2020/12/26 01:37:08;;;;;;;16.73;9.73;;;;;;;1.39;74.59;99780.03;5132773;27;20069;-63
2020/12/26 01:39:34;;;;;;;17.58;9.88;;;;;;;1.31;74.80;99769.34;5132909;28;20082;-64
2020/12/26 01:42:02;;;;;;;17.30;10.00;;;;;;;1.31;74.46;99761.53;5132665;28;20043;-63
2020/12/26 01:44:29;;;;;;;13.95;8.65;;;;;;;1.31;74.60;99767.56;5114185;28;20546;-62
2020/12/26 01:46:56;;;;;;;15.10;9.20;;;;;;;1.31;74.56;99769.34;5133073;28;20382;-63
2020/12/26 01:49:23;;;;;;;15.65;9.55;;;;;;;1.30;74.44;99768.47;5132916;28;20043;-64
2020/12/26 01:51:51;;;;;;;16.40;9.63;;;;;;;1.28;74.60;99766.94;5114540;28;20043;-64
2020/12/26 01:54:18;;;;;;;16.17;9.02;;;;;;;1.31;74.65;99758.91;5132951;28;20039;-66
2020/12/26 01:56:47;;;;;;;14.85;10.18;;;;;;;1.31;74.60;99770.16;5132629;28;20404;-63
2020/12/26 01:59:14;;;;;;;17.55;9.68;;;;;;;1.23;74.75;99773.31;5132650;28;20047;-63
2020/12/26 02:01:43;;;;;;;16.00;9.15;;;;;;;1.09;74.47;99768.25;5132665;28;20039;-64
2020/12/26 02:04:11;;;;;;;14.70;9.57;;;;;;;1.06;74.93;99770.22;5114061;28;20043;-64
2020/12/26 02:06:43;;;;;;;17.67;10.00;;;;;;;1.12;75.19;99778.44;5132613;28;20062;-63
2020/12/26 02:09:12;;;;;;;18.08;10.13;;;;;;;1.19;75.22;99771.03;5132731;28;20043;-63
2020/12/26 02:11:38;;;;;;;16.42;10.23;;;;;;;1.19;75.22;99784.91;5132828;28;20061;-63
2020/12/26 02:14:05;;;;;;;17.00;10.57;;;;;;;1.22;75.32;99789.03;5132378;27;20485;-63
2020/12/26 02:16:43;;;;;;;16.48;9.38;;;;;;;1.16;75.03;99799.91;5134860;27;20409;-64
2020/12/26 02:19:10;;;;;;;16.77;9.23;;;;;;;1.05;75.12;99800.66;5136809;27;20117;-63
2020/12/26 02:21:37;;;;;;;20.65;10.20;;;;;;;1.16;75.32;99799.91;5136744;27;20050;-63
2020/12/26 02:24:05;;;;;;;16.73;9.88;;;;;;;1.24;75.33;99800.19;5136515;27;20039;-63
2020/12/26 02:26:32;;;;;;;15.85;9.48;;;;;;;1.28;75.06;99793.81;5136570;27;20045;-63
2020/12/26 02:28:59;;;;;;;16.80;9.32;;;;;;;1.32;75.22;99795.28;5136746;27;20047;-63
2020/12/26 02:31:26;;;;;;;14.60;8.75;;;;;;;1.41;75.28;99792.00;5136712;27;20050;-63
2020/12/26 02:33:52;;;;;;;15.43;9.82;;;;;;;1.47;75.04;99786.38;5136749;27;20054;-64
2020/12/26 02:36:19;;;;;;;16.83;8.77;;;;;;;1.58;75.06;99795.16;5137074;27;20489;-63
2020/12/26 02:38:46;;;;;;;16.20;9.88;;;;;;;1.63;74.62;99796.50;5136006;27;20046;-63
2020/12/26 02:41:14;;;;;;;15.98;9.60;;;;;;;1.59;74.66;99792.47;5135970;27;20043;-63
2020/12/26 02:43:41;;;;;;;19.42;11.40;;;;;;;1.58;74.83;99789.94;5135729;27;20050;-64
2020/12/26 02:46:08;;;;;;;15.93;10.80;;;;;;;1.65;74.98;99791.19;5141608;27;20035;-63
2020/12/26 02:48:36;;;;;;;20.67;10.30;;;;;;;1.77;74.64;99792.06;5142749;27;20064;-63
2020/12/26 02:51:03;;;;;;;15.73;9.68;;;;;;;1.78;74.33;99789.34;5143335;27;20047;-63
2020/12/26 02:53:30;;;;;;;14.73;9.00;;;;;;;1.73;74.29;99794.88;5142225;27;20039;-63
2020/12/26 02:55:57;;;;;;;25.02;14.18;;;;;;;1.71;74.47;99798.53;5142125;27;20043;-63
2020/12/26 02:58:24;;;;;;;16.20;9.88;;;;;;;1.70;74.49;99789.06;5142295;27;20070;-63
2020/12/26 03:00:51;;;;;;;16.40;9.85;;;;;;;1.69;74.52;99790.84;5123539;27;20477;-63
2020/12/26 03:03:18;;;;;;;15.65;9.30;;;;;;;1.70;74.82;99787.28;5137399;27;20039;-63
2020/12/26 03:05:44;;;;;;;15.02;9.77;;;;;;;1.66;74.37;99777.19;5135876;27;20054;-63
2020/12/26 03:08:12;;;;;;;13.38;9.38;;;;;;;1.63;74.54;99782.63;5135704;27;20130;-64
2020/12/26 03:10:39;;;;;;;19.67;10.70;;;;;;;1.63;74.29;99788.69;5135353;27;20409;-63
2020/12/26 03:13:05;;;;;;;15.73;10.10;;;;;;;1.50;74.22;99785.28;5135181;27;20039;-63
2020/12/26 03:15:34;;;;;;;15.73;10.18;;;;;;;1.38;74.33;99787.00;5134680;27;20035;-63
2020/12/26 03:18:00;;;;;;;17.95;10.30;;;;;;;1.28;74.85;99782.56;5135205;27;20047;-64
2020/12/26 03:20:27;;;;;;;18.95;10.43;;;;;;;1.25;74.95;99781.00;5116452;27;20051;-64
2020/12/26 03:22:54;;;;;;;15.50;9.85;;;;;;;1.14;75.19;99780.94;5116822;27;20074;-64
2020/12/26 03:25:21;;;;;;;15.90;9.63;;;;;;;1.10;75.54;99784.69;5134394;27;20045;-64
2020/12/26 03:27:49;;;;;;;17.05;10.05;;;;;;;1.17;76.12;99785.94;5133971;27;20035;-64
2020/12/26 03:30:16;;;;;;;17.35;9.70;;;;;;;1.30;75.94;99786.72;5135061;27;20400;-65
2020/12/26 03:32:43;;;;;;;16.17;10.27;;;;;;;1.41;75.15;99791.16;5134845;27;20035;-65
2020/12/26 03:35:10;;;;;;;15.27;8.75;;;;;;;1.33;75.49;99796.09;5134127;27;20582;-64
2020/12/26 03:37:37;;;;;;;14.73;9.63;;;;;;;1.35;75.61;99794.22;5116161;27;20054;-64
2020/12/26 03:40:08;;;;;;;17.67;9.38;;;;;;;1.41;75.51;99796.38;5134469;27;20050;-65
2020/12/26 03:42:35;;;;;;;15.15;9.40;;;;;;;1.51;75.32;99793.94;5134401;27;20381;-65
2020/12/26 03:45:02;;;;;;;14.65;10.00;;;;;;;1.44;75.28;99799.59;5134289;27;20047;-64
2020/12/26 03:47:30;;;;;;;16.33;9.38;;;;;;;1.50;75.25;99800.94;5134704;27;20493;-65
2020/12/26 03:49:58;;;;;;;17.83;10.65;;;;;;;1.55;75.26;99798.84;5134297;27;20130;-65
2020/12/26 03:52:24;;;;;;;15.45;9.75;;;;;;;1.63;75.01;99790.44;5115998;27;20047;-65
2020/12/26 03:54:51;;;;;;;13.57;9.30;;;;;;;1.74;74.98;99795.72;5133912;27;20358;-65
2020/12/26 03:57:18;;;;;;;21.33;11.00;;;;;;;1.85;74.76;99792.31;5134318;27;20039;-65
2020/12/26 03:59:44;;;;;;;13.30;9.23;;;;;;;1.85;74.43;99790.56;5115680;27;20043;-64
2020/12/26 04:02:11;;;;;;;14.50;9.55;;;;;;;1.72;74.28;99790.63;5134046;27;20548;-65
2020/12/26 04:04:38;;;;;;;17.98;9.05;;;;;;;1.71;74.79;99790.72;5133673;27;20035;-64
2020/12/26 04:07:05;;;;;;;13.85;9.98;;;;;;;1.83;75.09;99804.63;5134014;27;20511;-64
2020/12/26 04:09:32;;;;;;;19.23;11.02;;;;;;;1.90;74.50;99801.47;5133931;27;20039;-64
2020/12/26 04:11:59;;;;;;;14.32;9.07;;;;;;;1.81;74.34;99791.72;5133892;27;20493;-65
2020/12/26 04:14:25;;;;;;;16.25;9.75;;;;;;;1.80;74.49;99786.63;5133402;27;20043;-64
2020/12/26 04:16:55;;;;;;;16.45;9.57;;;;;;;1.82;74.63;99782.94;5133636;27;20084;-64
2020/12/26 04:19:23;;;;;;;16.08;9.70;;;;;;;1.82;74.52;99788.16;5133732;27;20043;-63
2020/12/26 04:21:53;;;;;;;15.10;10.02;;;;;;;1.85;74.57;99780.13;5115521;27;20420;-64
2020/12/26 04:24:20;;;;;;;15.65;9.93;;;;;;;1.85;74.49;99785.34;5133413;27;20046;-64
2020/12/26 04:26:47;;;;;;;16.45;10.13;;;;;;;1.63;74.34;99780.00;5133450;27;20035;-64
2020/12/26 04:29:14;;;;;;;17.02;9.32;;;;;;;1.44;74.44;99781.38;5133651;27;20035;-64
2020/12/26 04:31:41;;;;;;;17.95;10.60;;;;;;;1.43;74.88;99782.31;5133635;27;20074;-64
2020/12/26 04:34:08;;;;;;;15.88;10.32;;;;;;;1.47;75.03;99775.09;5133166;27;20047;-64
2020/12/26 04:36:35;;;;;;;18.23;11.52;;;;;;;1.41;74.61;99776.38;5133554;27;20458;-64
2020/12/26 04:39:02;;;;;;;16.23;11.07;;;;;;;1.26;74.66;99772.25;5133098;27;20069;-64
2020/12/26 04:41:32;;;;;;;18.42;10.57;;;;;;;1.17;75.46;99767.69;5133207;27;20045;-64
2020/12/26 04:44:00;;;;;;;17.35;9.82;;;;;;;1.32;76.28;99758.78;5133281;27;20050;-64
2020/12/26 04:46:28;;;;;;;20.45;10.18;;;;;;;1.52;75.92;99769.56;5133226;27;20442;-64
2020/12/26 04:49:06;;;;;;;15.55;9.27;;;;;;;1.65;75.60;99768.53;5114832;27;20116;-64
2020/12/26 04:51:35;;;;;;;14.93;9.48;;;;;;;1.72;75.35;99767.16;5115241;27;20051;-64
2020/12/26 04:54:10;;;;;;;14.80;10.00;;;;;;;1.77;75.06;99771.19;5133156;27;20051;-64
2020/12/26 04:56:43;;;;;;;18.63;10.60;;;;;;;1.80;74.92;99771.00;5133084;27;20400;-64
2020/12/26 04:59:12;;;;;;;16.50;10.52;;;;;;;1.79;75.00;99777.13;5133152;27;20043;-64
2020/12/26 05:01:40;;;;;;;15.50;9.45;;;;;;;1.67;74.77;99779.72;5133463;27;20062;-64
2020/12/26 05:04:08;;;;;;;17.55;10.70;;;;;;;1.67;74.99;99791.88;5133161;27;20050;-64
2020/12/26 05:06:47;;;;;;;15.18;9.85;;;;;;;1.67;75.26;99784.06;5115066;27;20054;-64
2020/12/26 05:09:15;;;;;;;17.40;10.80;;;;;;;1.66;75.21;99798.03;5133193;27;20054;-64
2020/12/26 05:11:53;;;;;;;18.42;10.55;;;;;;;1.59;75.29;99795.06;5132922;28;20050;-64
2020/12/26 05:14:21;;;;;;;20.15;10.65;;;;;;;1.64;75.32;99795.56;5132762;28;20578;-64
2020/12/26 05:16:47;;;;;;;14.20;9.63;;;;;;;1.68;75.07;99796.19;5132794;28;20080;-65
2020/12/26 05:19:14;;;;;;;16.95;10.43;;;;;;;1.66;75.21;99792.84;5114630;28;20424;-64
2020/12/26 05:21:41;;;;;;;17.50;9.70;;;;;;;1.69;75.23;99782.19;5114560;28;20066;-64
2020/12/26 05:24:11;;;;;;;17.17;9.50;;;;;;;1.72;75.04;99781.97;5132544;27;20039;-64
2020/12/26 05:26:39;;;;;;;13.27;9.18;;;;;;;1.75;74.95;99773.91;5132697;28;20110;-65
2020/12/26 05:29:08;;;;;;;12.90;9.07;;;;;;;1.80;74.60;99766.59;5132868;28;20039;-64
2020/12/26 05:31:42;;;;;;;13.95;8.95;;;;;;;1.76;74.54;99766.94;5132811;28;20047;-63
2020/12/26 05:34:09;;;;;;;14.50;9.32;;;;;;;1.71;75.05;99772.47;5132575;28;20054;-64
2020/12/26 05:36:37;;;;;;;15.50;8.90;;;;;;;1.78;74.93;99772.88;5132479;27;20035;-63
2020/12/26 05:39:04;;;;;;;18.25;9.65;;;;;;;1.84;74.90;99765.44;5132839;27;20039;-64
2020/12/26 05:41:31;;;;;;;14.48;9.40;;;;;;;1.78;74.79;99768.47;5132574;27;20070;-64
2020/12/26 05:43:58;;;;;;;14.10;9.02;;;;;;;1.72;74.86;99769.78;5132379;28;20488;-63
2020/12/26 05:46:26;;;;;;;16.67;9.10;;;;;;;1.76;74.89;99761.72;5132745;28;20035;-64
2020/12/26 05:48:52;;;;;;;13.95;8.65;;;;;;;1.79;74.76;99766.69;5133232;28;20043;-63
2020/12/26 05:51:24;;;;;;;15.43;9.25;;;;;;;1.79;74.71;99774.50;5116423;27;20507;-64
2020/12/26 05:53:55;;;;;;;18.45;9.95;;;;;;;1.73;74.73;99783.63;5136331;27;20035;-64
2020/12/26 05:56:22;;;;;;;14.25;9.68;;;;;;;1.64;75.01;99782.53;5136470;27;20049;-63
2020/12/26 05:58:49;;;;;;;16.38;9.52;;;;;;;1.66;75.19;99785.84;5136693;27;20485;-64
2020/12/26 06:01:20;;;;;;;18.40;9.57;;;;;;;1.64;75.11;99784.31;5136506;27;20047;-64
2020/12/26 06:03:48;;;;;;;17.85;9.93;;;;;;;1.64;75.10;99776.50;5136026;27;20045;-63
2020/12/26 06:06:15;;;;;;;13.27;9.65;;;;;;;1.68;74.95;99772.72;5136501;27;20043;-64
2020/12/26 06:08:43;;;;;;;17.70;10.00;;;;;;;1.68;75.18;99777.94;5136236;27;20508;-63
2020/12/26 06:11:12;;;;;;;14.88;8.88;;;;;;;1.69;75.14;99785.63;5136319;27;20058;-64
2020/12/26 06:13:41;;;;;;;14.88;9.25;;;;;;;1.74;75.15;99793.94;5117646;27;20057;-64
2020/12/26 06:16:12;;;;;;;14.30;8.10;;;;;;;1.82;75.15;99790.78;5117450;27;20035;-64
2020/12/26 06:18:47;;;;;;;13.30;8.85;;;;;;;1.80;74.76;99784.03;5136232;27;20035;-63
2020/12/26 06:21:16;;;;;;;12.43;8.98;;;;;;;1.83;75.00;99786.38;5136176;27;20550;-64
2020/12/26 06:23:44;;;;;;;15.68;9.40;;;;;;;1.81;74.81;99781.28;5135903;27;20039;-64
2020/12/26 06:26:11;;;;;;;13.20;9.13;;;;;;;1.86;74.92;99788.78;5135961;27;20061;-64
2020/12/26 06:28:41;;;;;;;13.35;9.18;;;;;;;1.86;74.80;99787.00;5136058;27;20046;-64
2020/12/26 06:31:09;;;;;;;18.33;8.27;;;;;;;1.76;74.89;99788.63;5135968;27;20042;-64
2020/12/26 06:33:39;;;;;;;14.82;8.02;;;;;;;1.81;74.93;99786.50;5135589;27;20401;-64
2020/12/26 06:36:06;;;;;;;15.68;8.35;;;;;;;1.85;74.59;99779.28;5135797;27;20042;-64
2020/12/26 06:38:35;;;;;;;12.75;7.30;;;;;;;1.86;74.63;99767.91;5135793;27;20401;-64
2020/12/26 06:41:04;;;;;;;14.00;6.60;;;;;;;1.85;74.47;99769.69;5135761;27;20046;-64
2020/12/26 06:43:51;;;;;;;9.85;7.03;;;;;;;1.87;74.52;99761.75;5135480;27;20047;-64
2020/12/26 06:46:42;;;;;;;12.27;6.40;;;;;;;1.88;74.22;99760.81;5135629;27;20065;-64
2020/12/26 06:49:25;;;;;;;12.38;7.00;;;;;;;1.88;74.26;99759.03;5110575;27;20404;-65
2020/12/26 06:51:52;;;;;;;10.90;6.35;;;;;;;1.90;74.32;99756.31;5117037;27;20051;-64
2020/12/26 06:54:40;;;;;;;12.23;6.90;;;;;;;1.99;74.13;99761.66;5116604;27;20047;-64
2020/12/26 06:57:07;;;;;;;12.60;6.85;;;;;;;2.00;74.04;99762.53;5135355;27;20039;-64
2020/12/26 06:59:35;;;;;;;14.25;8.30;;;;;;;1.94;73.92;99763.78;5135444;27;20039;-64
2020/12/26 07:02:07;;;;;;;17.00;9.00;;;;;;;1.92;73.86;99751.81;5116652;27;20092;-63
2020/12/26 07:04:39;;;;;;;17.33;9.10;;;;;;;1.90;73.85;99759.75;5116515;27;20051;-64
2020/12/26 07:07:06;;;;;;;16.25;7.63;;;;;;;1.73;74.12;99757.56;5135301;27;20050;-63
2020/12/26 07:09:52;;;;;;;13.48;8.35;;;;;;;1.73;74.13;99763.59;5135181;27;20119;-64
2020/12/26 07:12:18;;;;;;;20.67;9.85;;;;;;;1.72;74.36;99755.91;5135078;27;20043;-64
2020/12/26 07:14:46;;;;;;;16.27;8.48;;;;;;;1.73;74.28;99757.56;5134748;27;20051;-64
2020/12/26 07:17:26;;;;;;;11.80;8.00;;;;;;;1.72;74.14;99764.56;5135137;27;20046;-64
2020/12/26 07:19:53;;;;;;;14.65;7.68;;;;;;;1.67;74.26;99758.00;5134960;27;20047;-64
2020/12/26 07:22:23;;;;;;;11.40;7.70;;;;;;;1.71;74.57;99769.84;5116349;27;20054;-64
2020/12/26 07:24:52;;;;;;;13.77;8.25;;;;;;;1.68;74.33;99770.94;5134490;27;20039;-64
2020/12/26 07:27:28;;;;;;;17.48;8.98;;;;;;;1.72;74.57;99767.16;5135316;27;20046;-64
2020/12/26 07:30:09;;;;;;;16.80;9.00;;;;;;;1.71;74.44;99770.72;5116409;27;20046;-65
2020/12/26 07:32:52;;;;;;;19.50;9.80;;;;;;;1.73;74.49;99768.81;5134842;27;20070;-65
2020/12/26 07:35:30;;;;;;;13.57;8.43;;;;;;;1.74;74.38;99760.03;5134381;27;20047;-65
2020/12/26 07:37:58;;;;;;;13.15;8.43;;;;;;;1.69;74.29;99771.75;5134597;27;20040;-69
2020/12/26 07:40:27;;;;;;;19.08;9.13;;;;;;;1.64;74.55;99764.28;5134538;27;20515;-64
2020/12/26 07:42:55;;;;;;;15.25;9.93;;;;;;;1.67;74.89;99768.41;5116324;27;20047;-64
2020/12/26 07:45:23;;;;;;;20.17;10.70;;;;;;;1.65;74.43;99778.16;5134107;27;20027;-65
2020/12/26 07:47:51;;;;;;;16.25;10.45;;;;;;;1.62;74.91;99780.97;5134504;27;20400;-65
2020/12/26 07:50:20;;;;;;;17.00;10.40;;;;;;;1.67;74.64;99778.84;5134445;27;20041;-65
2020/12/26 07:52:48;;;;;;;16.63;9.80;;;;;;;1.71;74.89;99788.09;5134425;27;20043;-65
2020/12/26 07:55:15;;;;;;;16.45;9.60;;;;;;;1.71;74.52;99785.50;5134051;27;20050;-65
2020/12/26 07:57:44;;;;;;;13.50;9.10;;;;;;;1.70;74.72;99802.91;5134289;27;20039;-65
2020/12/26 08:00:21;;;;;;;17.65;9.27;;;;;;;1.72;74.65;99793.22;5134335;27;20050;-66
2020/12/26 08:02:50;;;;;;;15.88;9.57;;;;;;;1.72;74.63;99798.44;5134301;27;20043;-65
2020/12/26 08:05:19;;;;;;;16.58;9.52;;;;;;;1.73;74.60;99797.50;5133827;27;20043;-65
2020/12/26 08:07:46;;;;;;;14.02;9.73;;;;;;;1.81;74.62;99798.72;5134305;27;20431;-65
2020/12/26 08:10:14;;;;;;;16.35;10.18;;;;;;;1.95;74.60;99790.69;5134189;27;20039;-65
2020/12/26 08:12:51;;;;;;;21.25;11.00;;;;;;;1.97;74.60;99794.88;5115376;27;20131;-65
2020/12/26 08:15:26;;;;;;;18.13;11.13;;;;;;;1.91;74.34;99792.69;5133535;27;20031;-63
2020/12/26 08:17:57;;;;;;;22.98;11.82;;;;;;;1.82;74.22;99793.38;5133907;27;20039;-64
2020/12/26 08:20:26;;;;;;;14.20;10.18;;;;;;;1.85;74.34;99793.16;5134158;27;20557;-65
2020/12/26 08:22:54;;;;;;;16.15;10.20;;;;;;;1.90;74.38;99796.25;5133821;27;20043;-62
2020/12/26 08:25:22;;;;;;;14.32;9.60;;;;;;;1.94;74.24;99799.47;5133408;27;20047;-63
2020/12/26 08:27:50;;;;;;;26.17;15.30;;;;;;;1.95;74.11;99796.75;5133781;27;20039;-63
2020/12/26 08:30:19;;;;;;;18.70;11.82;;;;;;;1.97;73.99;99791.44;5133825;27;20485;-64
2020/12/26 08:33:11;;;;;;;16.27;11.18;;;;;;;1.98;73.96;99791.31;5133656;27;20039;-64
2020/12/26 08:35:40;;;;;;;17.23;10.93;;;;;;;1.99;73.96;99797.34;5133111;27;20455;-64
2020/12/26 08:38:12;;;;;;;18.40;10.85;;;;;;;2.03;74.05;99803.16;5133405;27;20400;-64
2020/12/26 08:40:41;;;;;;;20.25;10.45;;;;;;;2.05;74.00;99809.94;5115618;27;20397;-65
2020/12/26 08:43:14;;;;;;;15.63;10.63;;;;;;;2.12;73.98;99808.56;5133634;27;20054;-64
2020/12/26 08:45:40;;;;;;;25.13;12.30;;;;;;;2.07;73.66;99815.88;5133206;27;20058;-64
2020/12/26 08:48:15;;;;;;;18.70;11.45;;;;;;;2.00;73.85;99817.28;5133333;27;20060;-65
2020/12/26 08:50:42;;;;;;;18.13;11.18;;;;;;;1.97;73.92;99815.72;5133399;27;20058;-64
2020/12/26 08:53:10;;;;;;;18.40;11.65;;;;;;;2.03;73.92;99811.81;5133360;27;20118;-65
2020/12/26 08:55:48;;;;;;;19.17;11.43;;;;;;;2.07;73.87;99805.44;5132928;27;20043;-65
2020/12/26 08:58:26;;;;;;;16.77;11.55;;;;;;;2.13;73.80;99814.59;5133269;27;20072;-65
2020/12/26 09:00:55;;;;;;;19.20;11.32;;;;;;;2.18;73.73;99812.47;5133223;27;20043;-64
2020/12/26 09:03:23;;;;;;;18.05;12.05;;;;;;;2.20;73.69;99827.06;5132858;27;20049;-65
2020/12/26 09:05:50;;;;;;;19.83;12.05;;;;;;;2.24;74.07;99830.25;5133080;27;20115;-65
2020/12/26 09:08:18;;;;;;;19.45;12.45;;;;;;;2.34;73.74;99828.63;5133190;27;20049;-65
2020/12/26 09:10:56;;;;;;;18.77;12.45;;;;;;;2.36;73.36;99836.34;5133055;27;20511;-65
2020/12/26 09:13:31;;;;;;;18.20;13.13;;;;;;;2.41;73.88;99834.25;5114417;28;20058;-64
2020/12/26 09:16:02;;;;;;;24.95;15.00;;;;;;;2.49;73.88;99834.50;5132893;28;20050;-65
2020/12/26 09:18:34;;;;;;;23.67;13.27;;;;;;;2.60;73.68;99831.88;5133007;28;20050;-64
2020/12/26 09:21:01;;;;;;;21.85;14.68;;;;;;;2.68;73.34;99841.75;5132921;28;20508;-65
2020/12/26 09:23:32;;;;;;;22.40;14.35;;;;;;;2.70;73.57;99835.47;5132702;28;20049;-64
2020/12/26 09:26:09;;;;;;;18.50;12.57;;;;;;;2.71;73.36;99837.13;5134622;27;20032;-64
2020/12/26 09:28:46;;;;;;;18.92;12.18;;;;;;;2.76;73.52;99841.16;5137237;27;20061;-65
2020/12/26 09:31:14;;;;;;;21.08;12.13;;;;;;;2.78;73.21;99842.72;5137222;27;20047;-65
2020/12/26 09:33:41;;;;;;;20.67;12.73;;;;;;;2.86;73.35;99842.13;5137113;27;20420;-64
2020/12/26 09:36:11;;;;;;;18.52;11.93;;;;;;;2.83;73.10;99837.16;5118904;27;20557;-65
2020/12/26 09:38:38;;;;;;;21.58;12.55;;;;;;;2.94;73.17;99845.00;5137583;27;20039;-64
2020/12/26 09:41:12;;;;;;;20.63;12.85;;;;;;;2.98;72.84;99841.19;5136903;27;20448;-64
2020/12/26 09:43:39;;;;;;;19.05;12.75;;;;;;;2.95;73.14;99847.47;5118128;27;20040;-64
2020/12/26 09:46:07;;;;;;;20.75;13.70;;;;;;;2.98;72.95;99846.41;5136643;27;20054;-64
2020/12/26 09:48:34;;;;;;;21.65;13.20;;;;;;;2.81;72.99;99837.25;5136807;27;20050;-64
2020/12/26 09:51:01;;;;;;;21.60;13.02;;;;;;;2.69;73.14;99843.41;5136766;27;20051;-64
2020/12/26 09:53:27;;;;;;;19.48;13.23;;;;;;;2.65;73.34;99852.41;5136401;27;20047;-65
2020/12/26 09:55:54;;;;;;;21.52;13.95;;;;;;;2.58;73.48;99852.06;5118245;27;20066;-65
2020/12/26 09:58:21;;;;;;;28.48;19.58;;;;;;;2.53;73.59;99848.97;5136478;27;20438;-64
2020/12/26 10:00:47;;;;;;;23.27;13.98;;;;;;;2.57;73.81;99849.56;5136379;27;20042;-64
2020/12/26 10:03:15;;;;;;;21.02;12.75;;;;;;;2.58;73.67;99840.78;5136394;27;20043;-64
2020/12/26 10:05:42;;;;;;;21.27;12.85;;;;;;;2.57;73.63;99837.38;5136012;27;20407;-64
2020/12/26 10:08:09;;;;;;;22.05;13.73;;;;;;;2.60;73.55;99838.88;5136318;27;20043;-64
2020/12/26 10:10:35;;;;;;;20.45;13.48;;;;;;;2.70;73.69;99834.66;5136285;27;20265;-64
2020/12/26 10:13:02;;;;;;;23.00;13.82;;;;;;;2.75;73.61;99836.91;5136102;27;20412;-63
2020/12/26 10:15:29;;;;;;;23.23;14.27;;;;;;;2.83;73.61;99827.53;5117503;27;20432;-63
2020/12/26 10:17:56;;;;;;;23.80;13.35;;;;;;;2.78;73.20;99829.66;5136084;27;20108;-63
2020/12/26 10:20:23;;;;;;;20.88;13.52;;;;;;;2.78;73.35;99819.22;5136041;27;20058;-64
2020/12/26 10:22:51;;;;;;;20.58;14.10;;;;;;;2.84;73.59;99816.13;5136467;27;20408;-64
2020/12/26 10:25:18;;;;;;;23.88;14.45;;;;;;;2.90;73.41;99817.44;5135744;27;20385;-64
2020/12/26 10:27:45;;;;;;;22.83;14.35;;;;;;;2.82;72.84;99815.44;5136153;27;20123;-63
2020/12/26 10:30:11;;;;;;;22.05;14.98;;;;;;;2.88;72.98;99801.88;5135947;27;20054;-64
2020/12/26 10:32:38;;;;;;;24.42;14.88;;;;;;;2.99;73.10;99795.81;5136027;27;20058;-64
2020/12/26 10:35:06;;;;;;;21.73;15.18;;;;;;;3.00;73.05;99799.28;5135976;27;20047;-64
2020/12/26 10:37:33;;;;;;;24.15;14.90;;;;;;;3.06;72.56;99798.78;5116981;27;20050;-64
2020/12/26 10:40:00;;;;;;;21.73;13.65;;;;;;;3.03;72.74;99796.44;5135797;27;20047;-65
2020/12/26 10:42:27;;;;;;;24.70;15.95;;;;;;;3.14;72.68;99788.56;5117125;27;20051;-64
2020/12/26 10:44:53;;;;;;;20.48;14.48;;;;;;;3.14;72.59;99792.03;5135507;27;20047;-64
2020/12/26 10:47:20;;;;;;;20.42;14.10;;;;;;;3.15;72.36;99793.69;5135697;27;20046;-64
2020/12/26 10:49:46;;;;;;;22.80;14.82;;;;;;;3.22;72.23;99786.16;5135554;27;20050;-64
2020/12/26 10:52:13;;;;;;;25.50;15.38;;;;;;;3.25;72.19;99779.88;5135523;27;20050;-63
2020/12/26 10:54:41;;;;;;;24.13;15.00;;;;;;;3.28;72.11;99779.63;5135128;27;20043;-64
2020/12/26 10:57:07;;;;;;;42.72;22.92;;;;;;;3.35;72.01;99778.19;5135438;27;20050;-64
2020/12/26 10:59:34;;;;;;;33.63;17.85;;;;;;;3.43;71.94;99779.25;5135201;27;20046;-64
2020/12/26 11:02:02;;;;;;;24.05;16.00;;;;;;;3.47;72.10;99772.81;5135297;27;20062;-65
2020/12/26 11:04:28;;;;;;;25.55;15.85;;;;;;;3.50;71.67;99776.13;5134831;27;20050;-63
2020/12/26 11:06:55;;;;;;;20.83;14.43;;;;;;;3.41;71.65;99773.28;5135247;27;20219;-63
2020/12/26 11:09:33;;;;;;;24.63;16.83;;;;;;;3.40;71.68;99768.22;5135212;27;20077;-64
2020/12/26 11:12:01;;;;;;;21.65;15.20;;;;;;;3.38;71.83;99773.53;5135147;27;20043;-64
2020/12/26 11:14:27;;;;;;;24.27;16.55;;;;;;;3.48;71.76;99755.34;5135012;27;20039;-64
2020/12/26 11:16:55;;;;;;;21.83;14.73;;;;;;;3.39;71.48;99756.09;5134964;27;20043;-64
2020/12/26 11:19:22;;;;;;;20.75;14.73;;;;;;;3.29;71.63;99760.38;5135185;27;20061;-64
2020/12/26 11:21:51;;;;;;;22.83;14.38;;;;;;;3.28;71.65;99756.94;5134946;27;20039;-64
2020/12/26 11:24:17;;;;;;;24.38;14.00;;;;;;;3.16;71.44;99760.53;5134562;27;20062;-64
2020/12/26 11:26:44;;;;;;;20.38;12.38;;;;;;;3.06;71.54;99765.66;5134676;27;20027;-64
2020/12/26 11:29:12;;;;;;;26.25;15.10;;;;;;;3.06;71.73;99767.41;5135057;27;20488;-64
2020/12/26 11:31:39;;;;;;;18.40;13.85;;;;;;;3.06;71.88;99757.84;5134718;27;20035;-64
2020/12/26 11:34:06;;;;;;;21.40;13.90;;;;;;;3.06;71.89;99757.84;5134350;27;20065;-65
2020/12/26 11:36:33;;;;;;;23.23;14.05;;;;;;;2.97;71.54;99758.53;5134535;27;20046;-65